Time;durP1;ratioP1;P1;durP2;ratioP2;P2;SDS_P1;SDS_P2;PMS_P1;PMS_P2;Temp;Humidity;BMP_temperature;BMP_pressure;BME280_temperature;BME280_humidity;BME280_pressure;Samples;Min_cycle;Max_cycle;Signal;HPM_P1;HPM_P2
2023/06/16 00:01:56;;;;;;;6.80;4.18;;;;;;;16.91;65.84;101758.91;6210920;23;20000;-79
2023/06/16 00:04:21;;;;;;;9.63;4.78;;;;;;;16.82;65.99;101751.75;6183761;23;20012;-82
2023/06/16 00:06:50;;;;;;;5.18;4.18;;;;;;;16.72;66.35;101749.97;6211801;23;20333;-82
2023/06/16 00:09:15;;;;;;;10.88;4.80;;;;;;;16.71;66.19;101746.47;6214414;23;20008;-81
2023/06/16 00:11:49;;;;;;;7.60;4.07;;;;;;;16.69;66.31;101756.41;6212557;23;19997;-81
2023/06/16 00:14:17;;;;;;;7.97;4.43;;;;;;;16.67;66.60;101746.88;6212873;23;20000;-81
2023/06/16 00:16:43;;;;;;;7.15;4.70;;;;;;;16.61;66.56;101749.03;6212737;23;20028;-81
2023/06/16 00:19:08;;;;;;;9.88;4.90;;;;;;;16.55;66.68;101749.56;6212196;23;20535;-80
2023/06/16 00:21:37;;;;;;;7.32;4.53;;;;;;;16.50;66.89;101749.13;6213321;23;20039;-82
2023/06/16 00:24:29;;;;;;;7.47;4.47;;;;;;;16.55;65.99;101754.03;6212842;23;20004;-82
2023/06/16 00:26:55;;;;;;;9.45;4.85;;;;;;;16.49;66.72;101749.25;6186272;23;20000;-82
2023/06/16 00:29:21;;;;;;;5.80;4.80;;;;;;;16.43;66.97;101747.13;6212045;23;20027;-82
2023/06/16 00:31:46;;;;;;;8.40;4.85;;;;;;;16.43;66.14;101744.47;6213483;23;20050;-82
2023/06/16 00:34:11;;;;;;;5.82;4.70;;;;;;;16.38;65.93;101746.63;6211817;23;20007;-81
2023/06/16 00:36:37;;;;;;;6.85;4.93;;;;;;;16.37;65.91;101752.91;6186983;23;20087;-82
2023/06/16 00:39:02;;;;;;;5.78;4.60;;;;;;;16.39;66.33;101750.97;6213350;23;20031;-81
2023/06/16 00:41:27;;;;;;;11.65;5.10;;;;;;;16.39;66.45;101753.63;6185521;23;20373;-82
2023/06/16 00:43:55;;;;;;;6.88;4.72;;;;;;;16.33;67.09;101749.69;6186105;23;20000;-81
2023/06/16 00:46:29;;;;;;;7.50;4.88;;;;;;;16.28;66.63;101750.06;6211572;23;20004;-82
2023/06/16 00:49:01;;;;;;;6.32;5.15;;;;;;;16.22;67.07;101750.59;6212680;23;20004;-82
2023/06/16 00:51:28;;;;;;;7.60;4.80;;;;;;;16.16;67.40;101750.25;6213421;23;19997;-82
2023/06/16 00:53:55;;;;;;;7.07;4.82;;;;;;;16.11;67.33;101747.16;6212179;23;20000;-82
2023/06/16 00:56:22;;;;;;;10.18;4.85;;;;;;;16.09;67.16;101735.81;6213000;23;20008;-81
2023/06/16 00:58:50;;;;;;;7.72;5.40;;;;;;;16.02;67.49;101740.78;6212556;23;20009;-81
2023/06/16 01:01:15;;;;;;;9.13;5.63;;;;;;;16.03;66.81;101738.97;6210395;23;20009;-81
2023/06/16 01:03:42;;;;;;;10.65;5.55;;;;;;;16.02;66.57;101735.50;6186479;23;20005;-81
2023/06/16 01:06:19;;;;;;;11.30;5.68;;;;;;;15.94;66.41;101740.56;6212654;23;20028;-81
2023/06/16 01:08:59;;;;;;;7.72;5.60;;;;;;;16.00;65.68;101737.41;6185419;23;20028;-81
2023/06/16 01:11:36;;;;;;;9.32;5.82;;;;;;;16.01;65.07;101733.81;6212985;23;20020;-80
2023/06/16 01:14:09;;;;;;;8.77;5.70;;;;;;;16.06;64.41;101726.28;6213162;23;20035;-80
2023/06/16 01:16:36;;;;;;;7.30;5.70;;;;;;;16.06;64.34;101720.97;6211633;23;20030;-80
2023/06/16 01:19:09;;;;;;;8.55;5.68;;;;;;;16.08;63.80;101728.81;6186178;23;20020;-81
2023/06/16 01:21:50;;;;;;;11.95;6.32;;;;;;;16.11;63.30;101726.75;6209762;23;20167;-78
2023/06/16 01:24:23;;;;;;;9.88;6.28;;;;;;;16.13;63.27;101727.47;6183236;23;20016;-81
2023/06/16 01:26:52;;;;;;;11.27;5.90;;;;;;;16.16;63.10;101726.38;6186860;23;20019;-81
2023/06/16 01:29:21;;;;;;;9.00;6.03;;;;;;;16.16;63.04;101729.03;6185352;23;20341;-78
2023/06/16 01:31:50;;;;;;;9.20;5.55;;;;;;;16.17;63.15;101734.19;6212340;23;20432;-81
2023/06/16 01:34:18;;;;;;;9.98;6.03;;;;;;;16.19;62.59;101728.75;6185043;23;20007;-78
2023/06/16 01:36:50;;;;;;;12.90;6.53;;;;;;;16.18;62.47;101729.72;6210442;23;20023;-78
2023/06/16 01:39:17;;;;;;;10.30;5.97;;;;;;;16.09;63.33;101731.34;6211288;23;20283;-81
2023/06/16 01:41:44;;;;;;;10.50;5.93;;;;;;;16.09;63.56;101723.38;6211278;23;20012;-81
2023/06/16 01:44:10;;;;;;;15.25;5.90;;;;;;;16.12;62.83;101731.09;6211720;23;20436;-81
2023/06/16 01:46:37;;;;;;;10.23;6.50;;;;;;;16.09;62.78;101722.53;6211614;23;20000;-81
2023/06/16 01:49:02;;;;;;;10.32;6.05;;;;;;;16.08;62.76;101723.50;6212554;23;20011;-80
2023/06/16 01:51:28;;;;;;;8.60;5.78;;;;;;;16.02;62.87;101716.06;6210688;23;20418;-81
2023/06/16 01:53:56;;;;;;;8.88;6.57;;;;;;;16.02;62.90;101716.91;6211142;23;20012;-81
2023/06/16 01:56:21;;;;;;;9.07;6.47;;;;;;;16.02;62.83;101719.56;6186091;23;20012;-81
2023/06/16 01:58:50;;;;;;;9.55;6.22;;;;;;;15.99;62.76;101731.25;6210463;23;20286;-81
2023/06/16 02:01:43;;;;;;;12.88;7.07;;;;;;;16.02;62.32;101719.56;6211826;23;20000;-82
2023/06/16 02:04:13;;;;;;;;;;;;;;;16.09;61.01;101726.03;6212080;23;20425;-81
2023/06/16 02:06:47;;;;;;;11.52;7.72;;;;;;;15.94;62.66;101730.78;6212475;23;19954;-81
2023/06/16 02:09:16;;;;;;;10.05;6.85;;;;;;;15.90;62.86;101729.34;6211567;23;20381;-82
2023/06/16 02:11:43;;;;;;;11.75;7.43;;;;;;;15.87;62.87;101726.13;6210782;23;20001;-81
2023/06/16 02:14:09;;;;;;;13.20;7.00;;;;;;;15.86;63.14;101732.38;6211358;23;20422;-82
2023/06/16 02:16:39;;;;;;;8.80;6.90;;;;;;;15.80;63.10;101724.94;6185725;23;20039;-81
2023/06/16 02:19:05;;;;;;;9.38;6.82;;;;;;;15.79;63.10;101723.25;6209876;23;20016;-80
2023/06/16 02:21:30;;;;;;;10.38;6.68;;;;;;;15.78;63.29;101726.88;6210053;23;20436;-81
2023/06/16 02:23:56;;;;;;;9.10;6.55;;;;;;;15.73;64.79;101732.56;6211172;23;20000;-81
2023/06/16 02:26:21;;;;;;;9.18;6.20;;;;;;;15.73;64.99;101729.06;6211050;23;20357;-81
2023/06/16 02:28:48;;;;;;;11.95;6.30;;;;;;;15.63;65.11;101731.63;6184422;23;20319;-81
2023/06/16 02:31:17;;;;;;;10.43;6.53;;;;;;;15.61;64.89;101728.25;6211605;23;20027;-82
2023/06/16 02:33:45;;;;;;;7.25;6.55;;;;;;;15.59;64.80;101733.66;6210926;23;20015;-81
2023/06/16 02:36:11;;;;;;;10.75;7.00;;;;;;;15.58;65.08;101731.97;6212073;23;20000;-81
2023/06/16 02:38:42;;;;;;;10.55;6.43;;;;;;;15.54;65.67;101733.16;6186116;23;20012;-82
2023/06/16 02:41:08;;;;;;;10.13;6.55;;;;;;;15.45;66.29;101736.56;6211691;23;20372;-81
2023/06/16 02:43:33;;;;;;;9.63;6.60;;;;;;;15.39;66.13;101730.91;6210902;23;20090;-81
2023/06/16 02:46:02;;;;;;;8.73;6.50;;;;;;;15.30;66.53;101732.50;6183879;23;20123;-81
2023/06/16 02:48:28;;;;;;;9.88;6.60;;;;;;;15.27;67.39;101725.63;6211481;23;20062;-81
2023/06/16 02:50:53;;;;;;;9.25;6.60;;;;;;;15.23;67.36;101726.00;6211956;23;19996;-81
2023/06/16 02:53:19;;;;;;;9.75;6.57;;;;;;;15.16;67.83;101730.06;6210827;23;20083;-81
2023/06/16 02:55:46;;;;;;;12.02;6.60;;;;;;;15.04;68.14;101721.28;6184581;23;20000;-81
2023/06/16 02:58:12;;;;;;;9.00;6.22;;;;;;;14.99;68.58;101719.00;6211488;23;20004;-81
2023/06/16 03:00:38;;;;;;;7.00;6.30;;;;;;;14.97;68.71;101714.78;6209843;23;20005;-82
2023/06/16 03:03:04;;;;;;;11.25;6.45;;;;;;;14.87;69.05;101719.97;6185087;23;20075;-81
2023/06/16 03:05:31;;;;;;;8.50;6.43;;;;;;;14.84;69.09;101725.50;6211243;23;20011;-81
2023/06/16 03:08:00;;;;;;;9.27;6.50;;;;;;;14.83;70.11;101734.44;6184265;23;20083;-82
2023/06/16 03:10:26;;;;;;;12.93;6.68;;;;;;;14.77;70.71;101732.22;6211561;23;20004;-81
2023/06/16 03:12:51;;;;;;;11.43;7.32;;;;;;;14.73;70.99;101733.44;6211043;23;20011;-81
2023/06/16 03:15:16;;;;;;;11.25;6.20;;;;;;;14.66;70.93;101733.06;6210968;23;20005;-81
2023/06/16 03:17:51;;;;;;;10.80;6.93;;;;;;;14.59;70.93;101731.84;6184223;23;20016;-82
2023/06/16 03:20:17;;;;;;;8.23;6.70;;;;;;;14.58;71.13;101724.03;6211549;23;20016;-81
2023/06/16 03:22:42;;;;;;;9.25;6.50;;;;;;;14.57;71.14;101730.28;6210410;23;20011;-81
2023/06/16 03:25:08;;;;;;;12.88;7.03;;;;;;;14.51;71.69;101725.47;6210845;23;20497;-81
2023/06/16 03:27:33;;;;;;;16.05;7.00;;;;;;;14.44;72.19;101726.91;6210674;23;20000;-81
2023/06/16 03:30:04;;;;;;;12.52;7.35;;;;;;;14.38;71.99;101734.28;6210504;23;20005;-81
2023/06/16 03:32:30;;;;;;;11.23;7.15;;;;;;;14.34;72.10;101732.81;6208929;23;20011;-81
2023/06/16 03:34:55;;;;;;;11.10;6.57;;;;;;;14.35;72.14;101737.16;6209862;23;20004;-81
2023/06/16 03:37:32;;;;;;;13.10;7.00;;;;;;;14.28;72.45;101733.28;6183919;23;20001;-83
2023/06/16 03:40:07;;;;;;;12.70;7.07;;;;;;;14.29;72.39;101734.97;6210654;23;20076;-82
2023/06/16 03:42:33;;;;;;;10.70;7.05;;;;;;;14.16;73.28;101738.69;6210750;23;20001;-81
2023/06/16 03:44:59;;;;;;;16.35;7.50;;;;;;;14.13;73.35;101741.56;6213551;23;20015;-81
2023/06/16 03:47:27;;;;;;;12.30;7.90;;;;;;;14.09;73.77;101739.13;6213467;23;20027;-81
2023/06/16 03:50:16;;;;;;;9.57;7.35;;;;;;;14.11;73.37;101742.50;6212491;23;20032;-81
2023/06/16 03:52:47;;;;;;;12.63;7.32;;;;;;;14.05;73.85;101739.47;6184775;23;20008;-81
2023/06/16 03:55:23;;;;;;;11.77;7.28;;;;;;;14.06;74.16;101743.81;6213460;23;20426;-81
2023/06/16 03:57:48;;;;;;;8.70;7.15;;;;;;;14.06;74.50;101747.31;6212905;23;20394;-81
2023/06/16 04:00:14;;;;;;;10.57;7.72;;;;;;;14.13;74.75;101749.50;6212524;23;20532;-80
2023/06/16 04:02:41;;;;;;;13.30;7.40;;;;;;;14.22;75.10;101747.00;6187529;23;20091;-81
2023/06/16 04:05:10;;;;;;;10.57;7.68;;;;;;;14.72;74.22;101745.00;6185890;23;20138;-80
2023/06/16 04:07:40;;;;;;;12.93;7.57;;;;;;;15.58;70.67;101747.03;6186252;23;20338;-81
2023/06/16 04:10:06;;;;;;;9.90;7.13;;;;;;;16.37;67.66;101742.28;6213115;23;20004;-81
2023/06/16 04:12:32;;;;;;;9.30;6.60;;;;;;;17.10;64.84;101744.00;6213038;23;20012;-81
2023/06/16 04:14:57;;;;;;;14.07;6.85;;;;;;;17.98;62.41;101741.44;6213509;23;20004;-82
2023/06/16 04:17:24;;;;;;;15.50;7.45;;;;;;;18.21;60.55;101754.50;6211385;23;20015;-80
2023/06/16 04:19:50;;;;;;;11.18;7.22;;;;;;;18.27;60.01;101741.44;6212707;23;20067;-81
2023/06/16 04:22:16;;;;;;;13.23;7.57;;;;;;;18.07;60.49;101745.94;6212276;23;20406;-79
2023/06/16 04:24:41;;;;;;;15.77;7.05;;;;;;;17.90;60.75;101749.28;6212667;23;20047;-81
2023/06/16 04:27:08;;;;;;;16.67;7.55;;;;;;;17.52;61.79;101753.53;6213931;23;20008;-81
2023/06/16 04:29:41;;;;;;;10.68;7.32;;;;;;;17.32;62.35;101750.97;6186277;23;20139;-81
2023/06/16 04:32:10;;;;;;;15.15;7.15;;;;;;;16.94;63.48;101755.16;6212204;23;20007;-81
2023/06/16 04:34:36;;;;;;;13.43;7.38;;;;;;;16.54;65.49;101763.00;6212442;23;20001;-82
2023/06/16 04:37:03;;;;;;;18.90;7.47;;;;;;;16.34;66.20;101756.69;6186474;23;20015;-81
2023/06/16 04:39:29;;;;;;;15.60;7.75;;;;;;;16.15;66.88;101760.03;6185656;23;20026;-81
2023/06/16 04:41:55;;;;;;;19.00;7.88;;;;;;;15.96;68.34;101758.03;6186345;23;20071;-81
2023/06/16 04:44:20;;;;;;;21.38;8.20;;;;;;;15.79;69.41;101760.41;6212774;23;20009;-81
2023/06/16 04:46:45;;;;;;;15.40;8.25;;;;;;;15.64;70.53;101760.69;6211513;23;20039;-81
2023/06/16 04:49:11;;;;;;;19.45;8.07;;;;;;;15.60;70.96;101764.53;6211652;23;20036;-81
2023/06/16 04:51:48;;;;;;;20.25;8.35;;;;;;;15.46;71.65;101764.75;6212074;23;20465;-80
2023/06/16 04:54:14;;;;;;;14.57;7.88;;;;;;;15.45;71.97;101767.53;6207858;23;20000;-81
2023/06/16 04:56:48;;;;;;;22.90;8.60;;;;;;;15.28;72.93;101761.78;6212253;23;20008;-82
2023/06/16 04:59:13;;;;;;;24.42;8.60;;;;;;;15.30;72.62;101764.31;6211831;23;20747;-82
2023/06/16 05:01:47;;;;;;;26.17;8.90;;;;;;;15.27;72.83;101770.69;6210724;23;20005;-82
2023/06/16 05:04:13;;;;;;;28.13;9.35;;;;;;;15.14;73.78;101769.97;6212076;23;20422;-82
2023/06/16 05:06:48;;;;;;;18.02;9.07;;;;;;;15.19;74.18;101770.44;6184855;23;20004;-81
2023/06/16 05:09:13;;;;;;;18.17;8.73;;;;;;;15.21;75.09;101765.00;6184965;23;20004;-81
2023/06/16 05:11:38;;;;;;;20.60;9.65;;;;;;;15.26;73.57;101768.16;6213064;23;20062;-81
2023/06/16 05:14:14;;;;;;;24.70;9.50;;;;;;;15.26;73.58;101769.00;6211514;23;20005;-81
2023/06/16 05:16:39;;;;;;;21.25;9.90;;;;;;;15.29;71.59;101765.28;6213618;23;20016;-81
2023/06/16 05:19:05;;;;;;;19.63;9.68;;;;;;;15.28;73.58;101774.19;6212197;23;20020;-81
2023/06/16 05:21:30;;;;;;;21.13;9.63;;;;;;;15.33;73.00;101775.50;6211461;23;20329;-81
2023/06/16 05:24:02;;;;;;;19.33;10.07;;;;;;;15.36;70.69;101774.44;6212670;23;20452;-81
2023/06/16 05:26:27;;;;;;;25.25;9.90;;;;;;;15.44;69.36;101776.47;6212021;23;20004;-82
2023/06/16 05:28:52;;;;;;;21.95;9.38;;;;;;;15.47;71.08;101769.09;6211496;23;20011;-81
2023/06/16 05:31:18;;;;;;;16.10;9.30;;;;;;;15.53;71.76;101776.56;6185905;23;20005;-80
2023/06/16 05:33:43;;;;;;;20.40;9.50;;;;;;;15.54;73.09;101767.63;6213038;23;20034;-81
2023/06/16 05:36:10;;;;;;;14.45;9.40;;;;;;;15.62;72.83;101780.34;6211806;23;20023;-81
2023/06/16 05:38:46;;;;;;;16.55;9.88;;;;;;;15.69;72.43;101786.84;6213074;23;20001;-81
2023/06/16 05:41:28;;;;;;;16.15;9.77;;;;;;;15.86;68.58;101781.00;6211858;23;20091;-81
2023/06/16 05:43:57;;;;;;;19.17;9.93;;;;;;;15.96;67.73;101775.78;6184568;23;20448;-82
2023/06/16 05:46:23;;;;;;;12.93;9.70;;;;;;;16.08;67.22;101785.41;6211803;23;20500;-81
2023/06/16 05:48:49;;;;;;;19.67;10.05;;;;;;;16.14;66.56;101779.59;6184387;23;20462;-81
2023/06/16 05:51:15;;;;;;;14.98;10.65;;;;;;;16.25;66.58;101779.53;6211968;23;19996;-81
2023/06/16 05:53:42;;;;;;;14.50;9.60;;;;;;;16.31;67.32;101783.50;6185898;23;20015;-81
2023/06/16 05:56:08;;;;;;;15.88;10.10;;;;;;;16.40;67.47;101782.72;6154892;23;20319;-81
2023/06/16 05:58:35;;;;;;;16.63;9.93;;;;;;;16.51;65.22;101781.84;6156204;23;20610;-82
2023/06/16 06:01:06;;;;;;;13.93;9.98;;;;;;;16.60;66.28;101778.41;6181600;23;20307;-82
2023/06/16 06:03:32;;;;;;;18.00;10.00;;;;;;;16.68;65.11;101785.75;6179592;23;20362;-80
2023/06/16 06:05:58;;;;;;;15.43;9.52;;;;;;;16.75;64.41;101790.41;6180909;23;20001;-81
2023/06/16 06:08:40;;;;;;;15.63;9.82;;;;;;;16.85;63.20;101796.66;6181769;23;20013;-82
2023/06/16 06:11:17;;;;;;;14.23;10.05;;;;;;;16.97;62.27;101797.41;6180785;23;20001;-82
2023/06/16 06:13:42;;;;;;;13.13;10.02;;;;;;;17.09;61.75;101784.88;6180164;23;20008;-82
2023/06/16 06:16:08;;;;;;;17.15;9.70;;;;;;;17.20;60.58;101790.94;6181737;23;20005;-82
2023/06/16 06:18:33;;;;;;;13.30;10.07;;;;;;;17.32;59.32;101790.88;6179343;23;20347;-82
2023/06/16 06:20:58;;;;;;;14.40;9.85;;;;;;;17.43;59.09;101788.94;6181559;23;20387;-81
2023/06/16 06:23:24;;;;;;;12.60;10.07;;;;;;;17.44;57.90;101785.31;6181637;23;20001;-81
2023/06/16 06:25:49;;;;;;;16.13;9.82;;;;;;;17.58;58.85;101793.88;6180711;23;20015;-83
2023/06/16 06:28:18;;;;;;;15.60;9.85;;;;;;;17.65;57.16;101795.88;6181533;23;20005;-82
2023/06/16 06:30:44;;;;;;;13.23;10.00;;;;;;;17.73;57.89;101790.75;6180922;23;19997;-82
2023/06/16 06:33:10;;;;;;;11.77;9.77;;;;;;;17.82;56.97;101799.72;6181272;23;20011;-82
2023/06/16 06:35:35;;;;;;;17.40;9.88;;;;;;;17.94;57.89;101801.28;6179881;23;20099;-82
2023/06/16 06:38:01;;;;;;;17.17;9.85;;;;;;;18.07;56.67;101803.72;6179945;23;20444;-80
2023/06/16 06:40:27;;;;;;;11.43;9.32;;;;;;;18.19;56.99;101799.09;6180493;23;20008;-79
2023/06/16 06:42:53;;;;;;;14.80;9.57;;;;;;;18.31;56.50;101803.28;6180281;23;20001;-79
2023/06/16 06:45:20;;;;;;;15.02;9.30;;;;;;;18.39;56.19;101806.06;6179518;23;20015;-78
2023/06/16 06:47:45;;;;;;;14.02;9.40;;;;;;;18.51;54.89;101801.47;6180551;23;20004;-80
2023/06/16 06:50:10;;;;;;;13.18;9.75;;;;;;;18.59;54.81;101804.25;6181058;23;20005;-78
2023/06/16 06:52:36;;;;;;;16.38;9.90;;;;;;;18.68;54.74;101809.59;6180423;23;20080;-78
2023/06/16 06:55:03;;;;;;;13.45;9.52;;;;;;;18.79;54.38;101806.78;6179984;23;20334;-80
2023/06/16 06:57:28;;;;;;;11.00;9.85;;;;;;;18.84;54.55;101802.84;6155353;23;20009;-79
2023/06/16 07:00:00;;;;;;;12.00;9.63;;;;;;;19.02;52.36;101811.78;6180660;23;20036;-79
2023/06/16 07:02:38;;;;;;;16.50;10.40;;;;;;;19.08;51.74;101808.53;6181793;23;20005;-79
2023/06/16 07:05:05;;;;;;;15.40;9.57;;;;;;;19.23;50.90;101803.59;6179604;23;20686;-79
2023/06/16 07:07:31;;;;;;;18.27;8.70;;;;;;;19.49;50.44;101806.41;6180713;23;20339;-79
2023/06/16 07:09:56;;;;;;;16.02;8.00;;;;;;;19.78;50.21;101807.13;6180631;23;20382;-78
2023/06/16 07:12:32;;;;;;;10.88;7.18;;;;;;;19.96;47.77;101818.66;6180743;23;20356;-77
2023/06/16 07:14:58;;;;;;;9.25;6.63;;;;;;;20.29;46.15;101802.97;6153979;23;20414;-78
2023/06/16 07:17:23;;;;;;;11.82;7.97;;;;;;;20.62;46.58;101810.31;6179779;23;20032;-79
2023/06/16 07:19:49;;;;;;;19.05;8.70;;;;;;;20.87;45.54;101805.16;6181263;23;20680;-79
2023/06/16 07:22:16;;;;;;;11.27;7.43;;;;;;;21.18;44.85;101806.31;6180696;23;20011;-79
2023/06/16 07:24:44;;;;;;;12.00;6.95;;;;;;;21.47;44.60;101807.84;6155665;23;20012;-79
2023/06/16 07:27:10;;;;;;;8.93;7.00;;;;;;;21.76;43.09;101810.97;6178030;23;20083;-79
2023/06/16 07:29:36;;;;;;;9.80;6.00;;;;;;;22.04;42.66;101805.38;6180250;23;20001;-78
2023/06/16 07:32:02;;;;;;;8.23;6.82;;;;;;;22.26;40.68;101806.56;6181308;23;20088;-78
2023/06/16 07:34:27;;;;;;;10.68;6.13;;;;;;;22.47;41.04;101806.91;6180686;23;20005;-78
2023/06/16 07:36:53;;;;;;;11.45;6.30;;;;;;;22.84;40.70;101801.06;6181259;23;20056;-79
2023/06/16 07:39:21;;;;;;;9.10;6.45;;;;;;;22.95;39.41;101799.84;6181156;23;20005;-79
2023/06/16 07:41:46;;;;;;;8.68;6.70;;;;;;;22.96;39.31;101799.69;6178791;23;20028;-80
2023/06/16 07:44:12;;;;;;;8.07;5.65;;;;;;;23.30;38.52;101807.47;6180773;23;20426;-78
2023/06/16 07:46:39;;;;;;;9.27;6.22;;;;;;;23.64;38.22;101799.13;6181832;23;20017;-78
2023/06/16 07:49:05;;;;;;;10.25;5.78;;;;;;;23.80;36.36;101802.75;6179847;23;20005;-78
2023/06/16 07:51:30;;;;;;;9.15;5.88;;;;;;;24.17;36.33;101802.00;6171955;23;31899;-80
2023/06/16 07:53:55;;;;;;;7.88;5.70;;;;;;;24.37;36.29;101800.50;6181708;23;20001;-79
2023/06/16 07:56:21;;;;;;;8.70;5.95;;;;;;;24.19;35.49;101798.13;6180363;23;20011;-77
2023/06/16 07:58:46;;;;;;;10.25;5.93;;;;;;;24.42;36.05;101808.06;6181687;23;20005;-78
2023/06/16 08:01:12;;;;;;;13.25;5.68;;;;;;;24.50;34.80;101802.63;6179504;23;20378;-78
2023/06/16 08:03:38;;;;;;;7.43;5.13;;;;;;;24.71;34.37;101805.44;6180646;23;20001;-77
2023/06/16 08:06:04;;;;;;;9.10;5.50;;;;;;;24.94;34.84;101798.16;6181311;23;20192;-78
2023/06/16 08:08:32;;;;;;;12.10;7.03;;;;;;;24.97;33.93;101791.56;6181204;23;20060;-78
2023/06/16 08:10:58;;;;;;;9.30;5.75;;;;;;;25.19;34.26;101789.81;6180642;23;20001;-78
2023/06/16 08:13:25;;;;;;;7.95;5.80;;;;;;;25.38;32.99;101788.41;6180852;23;20005;-79
2023/06/16 08:15:50;;;;;;;11.02;5.70;;;;;;;25.69;33.09;101785.53;6181180;23;20005;-78
2023/06/16 08:18:17;;;;;;;8.23;5.75;;;;;;;25.86;32.27;101792.34;6177923;23;20080;-78
2023/06/16 08:20:45;;;;;;;11.70;5.65;;;;;;;26.01;31.36;101790.41;6180298;23;20056;-78
2023/06/16 08:23:10;;;;;;;5.93;4.90;;;;;;;26.35;33.11;101787.03;6180671;23;20000;-78
2023/06/16 08:25:36;;;;;;;11.10;5.13;;;;;;;26.58;31.91;101780.59;6180671;23;20001;-78
2023/06/16 08:28:03;;;;;;;7.60;4.90;;;;;;;26.78;30.92;101787.78;6204751;23;20067;-78
2023/06/16 08:30:28;;;;;;;14.80;5.47;;;;;;;26.75;29.53;101788.19;6205740;23;20005;-77
2023/06/16 08:32:53;;;;;;;6.25;4.85;;;;;;;26.72;30.08;101779.66;6181512;23;20470;-78
2023/06/16 08:35:19;;;;;;;10.73;6.00;;;;;;;26.66;30.41;101789.38;6182806;23;20008;-78
2023/06/16 08:37:44;;;;;;;10.77;5.22;;;;;;;26.80;29.78;101790.28;6180384;23;20342;-78
2023/06/16 08:40:11;;;;;;;8.32;5.07;;;;;;;26.94;29.50;101781.28;6182472;23;20008;-79
2023/06/16 08:42:38;;;;;;;6.00;4.50;;;;;;;27.29;28.53;101782.13;6183184;23;20005;-79
2023/06/16 08:45:04;;;;;;;8.93;4.35;;;;;;;27.36;28.66;101779.44;6182060;23;20028;-78
2023/06/16 08:47:29;;;;;;;5.00;3.78;;;;;;;27.41;27.93;101777.78;6183137;23;20009;-79
2023/06/16 08:49:56;;;;;;;10.07;4.32;;;;;;;27.60;27.88;101770.78;6183187;23;20005;-78
2023/06/16 08:52:23;;;;;;;9.38;4.70;;;;;;;27.50;27.88;101775.75;6205187;23;20001;-83
2023/06/16 08:54:57;;;;;;;6.30;4.43;;;;;;;27.86;28.90;101780.88;6183010;23;20059;-83
2023/06/16 08:57:23;;;;;;;7.05;4.30;;;;;;;27.95;27.46;101774.25;6182782;23;20143;-82
2023/06/16 08:59:54;;;;;;;7.45;4.18;;;;;;;27.87;25.83;101776.31;6182058;23;20005;-82
2023/06/16 09:02:20;;;;;;;10.93;4.53;;;;;;;28.21;27.20;101772.63;6181807;23;20009;-83
2023/06/16 09:04:46;;;;;;;6.22;4.93;;;;;;;28.35;26.15;101780.56;6180779;23;20008;-83
2023/06/16 09:07:16;;;;;;;10.70;5.07;;;;;;;28.40;26.09;101772.63;6179821;23;20085;-83
2023/06/16 09:09:42;;;;;;;10.55;4.57;;;;;;;28.42;26.03;101775.16;6205035;23;20013;-82
2023/06/16 09:12:10;;;;;;;7.18;4.10;;;;;;;28.35;25.92;101777.84;6206119;23;20443;-83
2023/06/16 09:14:39;;;;;;;4.95;3.78;;;;;;;27.99;24.87;101770.06;6180708;23;20008;-83
2023/06/16 09:17:14;;;;;;;6.20;4.05;;;;;;;28.42;27.09;101779.72;6180506;23;20085;-84
2023/06/16 09:19:51;;;;;;;14.07;5.75;;;;;;;28.36;26.76;101776.81;6179491;23;20021;-82
2023/06/16 09:22:26;;;;;;;7.30;4.90;;;;;;;28.85;26.63;101775.56;6182116;23;20008;-82
2023/06/16 09:24:59;;;;;;;5.43;3.92;;;;;;;29.04;25.96;101778.44;6182677;23;20001;-83
2023/06/16 09:27:43;;;;;;;6.45;4.40;;;;;;;28.87;24.70;101775.34;6180962;23;20005;-82
2023/06/16 09:30:10;;;;;;;4.63;3.45;;;;;;;28.97;25.37;101776.56;6202640;23;20499;-81
2023/06/16 09:32:39;;;;;;;8.07;3.58;;;;;;;29.09;24.79;101776.75;6181494;23;20334;-81
2023/06/16 09:35:36;;;;;;;8.48;3.58;;;;;;;29.16;26.55;101780.25;6180859;23;20009;-81
2023/06/16 09:38:03;;;;;;;8.23;3.92;;;;;;;29.19;25.02;101777.13;6180763;23;20019;-81
2023/06/16 09:40:33;;;;;;;6.38;3.55;;;;;;;28.78;25.71;101771.16;6181690;23;20338;-81
2023/06/16 09:43:00;;;;;;;7.22;3.60;;;;;;;28.83;25.32;101771.38;6180021;23;20071;-81
2023/06/16 09:45:31;;;;;;;9.10;4.30;;;;;;;28.30;24.42;101771.41;6181550;23;20063;-82
2023/06/16 09:48:03;;;;;;;12.00;5.35;;;;;;;28.40;25.55;101771.81;6179851;23;20008;-82
2023/06/16 09:50:40;;;;;;;5.82;3.70;;;;;;;28.17;25.64;101764.09;6179216;23;20348;-81
2023/06/16 09:53:07;;;;;;;5.60;3.50;;;;;;;28.63;26.04;101760.56;6181059;23;20001;-81
2023/06/16 09:55:37;;;;;;;6.22;3.30;;;;;;;28.64;24.62;101768.47;6180265;23;20005;-82
2023/06/16 09:58:02;;;;;;;6.00;3.28;;;;;;;28.53;24.49;101762.88;6181508;23;20005;-81
2023/06/16 10:00:30;;;;;;;5.47;3.33;;;;;;;28.77;24.51;101766.78;6179749;23;20005;-81
2023/06/16 10:02:59;;;;;;;6.88;3.50;;;;;;;29.07;24.79;101762.56;6181349;23;20005;-82
2023/06/16 10:05:25;;;;;;;3.88;3.35;;;;;;;29.47;24.65;101757.84;6181530;23;20066;-82
2023/06/16 10:07:55;;;;;;;4.32;3.40;;;;;;;29.63;24.17;101756.53;6205263;23;20083;-82
2023/06/16 10:10:29;;;;;;;9.65;3.92;;;;;;;29.48;23.76;101750.56;6181708;23;20005;-82
2023/06/16 10:13:02;;;;;;;5.68;3.65;;;;;;;29.86;25.72;101750.53;6182305;23;20087;-81
2023/06/16 10:15:30;;;;;;;6.90;3.40;;;;;;;29.65;23.34;101746.31;6208846;23;20454;-78
2023/06/16 10:18:03;;;;;;;5.88;3.53;;;;;;;29.01;23.88;101750.72;6212033;23;20019;-77
2023/06/16 10:20:32;;;;;;;5.30;3.50;;;;;;;29.37;25.09;101749.31;6212263;23;20437;-77
2023/06/16 10:23:00;;;;;;;5.72;3.55;;;;;;;29.23;24.47;101737.72;6211343;23;20008;-77
2023/06/16 10:25:25;;;;;;;3.50;3.20;;;;;;;29.48;24.88;101734.28;6212519;23;20004;-77
2023/06/16 10:27:52;;;;;;;7.15;3.22;;;;;;;29.48;25.15;101742.41;6212696;23;20005;-77
2023/06/16 10:30:22;;;;;;;5.93;3.20;;;;;;;29.26;24.46;101740.00;6210833;23;20079;-80
2023/06/16 10:32:49;;;;;;;5.88;3.35;;;;;;;29.77;24.53;101738.28;6184990;23;20005;-79
2023/06/16 10:35:17;;;;;;;3.97;3.58;;;;;;;29.66;22.97;101736.28;6211688;23;20001;-81
2023/06/16 10:37:43;;;;;;;5.28;3.63;;;;;;;29.62;23.66;101733.19;6184149;23;20434;-80
2023/06/16 10:40:14;;;;;;;4.75;3.10;;;;;;;29.72;23.40;101730.81;6212702;23;20055;-80
2023/06/16 10:42:40;;;;;;;7.03;3.20;;;;;;;29.97;23.90;101727.28;6212167;23;20488;-80
2023/06/16 10:45:29;;;;;;;6.10;3.65;;;;;;;30.07;24.72;101725.78;6183371;23;20008;-81
2023/06/16 10:48:03;;;;;;;4.60;3.30;;;;;;;29.89;23.38;101729.22;6211509;23;20075;-80
2023/06/16 10:50:38;;;;;;;6.18;3.50;;;;;;;29.95;23.59;101727.50;6211624;23;20330;-81
2023/06/16 10:53:22;;;;;;;4.93;3.97;;;;;;;29.53;23.52;101734.47;6210430;23;20008;-81
2023/06/16 10:56:05;;;;;;;3.65;3.00;;;;;;;29.78;24.48;101727.22;6184280;23;20005;-80
2023/06/16 10:58:32;;;;;;;5.18;3.78;;;;;;;29.97;22.63;101727.28;6208381;23;20001;-81
2023/06/16 11:01:01;;;;;;;5.57;3.50;;;;;;;29.82;22.42;101722.19;6183763;23;20015;-80
2023/06/16 11:03:45;;;;;;;6.22;3.10;;;;;;;30.13;22.71;101719.47;6211440;23;20334;-81
2023/06/16 11:06:11;;;;;;;7.28;3.47;;;;;;;30.12;22.97;101722.41;6210167;23;20050;-82
2023/06/16 11:08:53;;;;;;;3.72;3.30;;;;;;;30.18;22.72;101714.22;6210667;23;20005;-81
2023/06/16 11:11:19;;;;;;;5.68;3.83;;;;;;;29.95;22.80;101714.75;6184313;23;20058;-81
2023/06/16 11:13:46;;;;;;;5.80;3.42;;;;;;;29.84;22.31;101720.91;6209904;23;20004;-81
2023/06/16 11:16:12;;;;;;;4.45;3.15;;;;;;;29.95;22.08;101716.66;6208776;23;20012;-82
2023/06/16 11:19:04;;;;;;;4.60;3.40;;;;;;;30.16;23.06;101712.78;6158791;23;20016;-82
2023/06/16 11:21:30;;;;;;;;;;;;;;;30.67;23.93;101711.69;6210891;23;20011;-82
2023/06/16 11:24:07;;;;;;;6.75;3.63;;;;;;;30.22;22.88;101706.44;6210847;23;19983;-81
2023/06/16 11:26:33;;;;;;;6.72;3.40;;;;;;;30.54;23.21;101712.63;6210609;23;20000;-81
2023/06/16 11:29:04;;;;;;;11.25;4.68;;;;;;;30.62;22.50;101706.91;6184080;23;20456;-81